NL-0030 weather

Glider Field De Voorst
De Voorst, Flevoland, Netherlands

Public forecast

Using degrees Celsius for public forecast. Weather courtesy of forecast.io.

Closest aviation weather report (METAR) to Glider Field De Voorst

Closest report is Leeuwarden Air Base, 33.1 nm (61.3 km) N. Retrieved 2020/02/23 10:30 UTC (14 minutes ago):

EHLW 231030Z AUTO 15007KT 100V190 4100 DZ SCT002 BKN004 BKN011 06/06 Q1002 AMB

Closest aviation forecast (TAF) to Glider Field De Voorst

Closest forecast is Lelystad Airport, 19.4 nm (36.0 km) SW. Retrieved 2020/02/23 06:00 UTC (5 hours ago):

TAF COR TAF COR EHLE 230555Z 2306/2412 21010KT 7000 RA SCT008 BKN020 BECMG 2306/2309 17008KT 4000 BKN012 BECMG 2309/2310 25028G42KT TEMPO 2309/2312 2500 +RA BKN006 OVC012 BECMG 2312/2315 29020G32KT 9999 NSW BECMG 2315/2318 29016KT SCT030 PROB40 TEMPO 2315/2318 7000 -SHRA SCT020CB BECMG 2321/2324 28008KT BECMG 2410/2412 18015G25KT SCT007 BKN012